Time;durP1;ratioP1;P1;durP2;ratioP2;P2;SDS_P1;SDS_P2;PMS_P1;PMS_P2;Temp;Humidity;BMP_temperature;BMP_pressure;BME280_temperature;BME280_humidity;BME280_pressure;Samples;Min_cycle;Max_cycle;Signal;HPM_P1;HPM_P2
2021/08/23 00:00:26;;;;;;;;;6.00;5.00;;;;;;;;5002064;28;45433;-85
2021/08/23 00:02:51;;;;;;;;;6.00;5.00;;;;;;;;5002341;28;45380;-85
2021/08/23 00:05:16;;;;;;;;;14.33;6.00;;;;;;;;5001170;28;45417;-85
2021/08/23 00:07:42;;;;;;;;;6.00;5.00;;;;;;;;5001817;28;46522;-85
2021/08/23 00:10:07;;;;;;;;;8.00;6.33;;;;;;;;4983110;28;45238;-85
2021/08/23 00:12:32;;;;;;;;;5.00;5.00;;;;;;;;5000906;28;45510;-85
2021/08/23 00:14:58;;;;;;;;;8.25;6.00;;;;;;;;4998864;28;45549;-85
2021/08/23 00:17:23;;;;;;;;;5.50;5.25;;;;;;;;4998512;28;48911;-85
2021/08/23 00:19:48;;;;;;;;;6.50;5.00;;;;;;;;4997265;28;45185;-85
2021/08/23 00:22:23;;;;;;;;;5.75;5.00;;;;;;;;4986269;28;45479;-85
2021/08/23 00:24:49;;;;;;;;;3.00;3.00;;;;;;;;4969010;28;45486;-85
2021/08/23 00:27:14;;;;;;;;;5.25;5.00;;;;;;;;5001524;28;45420;-85
2021/08/23 00:29:40;;;;;;;;;6.50;5.75;;;;;;;;4986259;28;46201;-84
2021/08/23 00:32:05;;;;;;;;;5.00;5.00;;;;;;;;4993229;28;45457;-85
2021/08/23 00:34:30;;;;;;;;;5.50;3.00;;;;;;;;5005724;28;45519;-85
2021/08/23 00:36:58;;;;;;;;;3.50;3.50;;;;;;;;5002945;28;45605;-84
2021/08/23 00:39:23;;;;;;;;;6.50;6.50;;;;;;;;4980712;28;45475;-85
2021/08/23 00:41:48;;;;;;;;;6.67;5.33;;;;;;;;4974835;28;45432;-85
2021/08/23 00:44:14;;;;;;;;;5.75;4.25;;;;;;;;4984847;28;46181;-85
2021/08/23 00:46:39;;;;;;;;;3.25;3.00;;;;;;;;5001689;28;46177;-85
2021/08/23 00:49:04;;;;;;;;;5.67;3.00;;;;;;;;4988344;28;45272;-85
2021/08/23 00:51:29;;;;;;;;;5.50;4.00;;;;;;;;4981375;28;45487;-85
2021/08/23 00:53:55;;;;;;;;;5.50;4.00;;;;;;;;5000624;28;45620;-85
2021/08/23 00:56:20;;;;;;;;;6.00;3.00;;;;;;;;5007237;28;45408;-84
2021/08/23 00:58:46;;;;;;;;;4.75;3.50;;;;;;;;4999198;28;45837;-85
2021/08/23 01:01:15;;;;;;;;;5.50;4.00;;;;;;;;4996117;28;45586;-84
2021/08/23 01:03:53;;;;;;;;;9.50;5.75;;;;;;;;4987267;28;45454;-85
2021/08/23 01:06:19;;;;;;;;;5.00;5.00;;;;;;;;4999081;28;46359;-85
2021/08/23 01:08:47;;;;;;;;;5.00;4.25;;;;;;;;4982992;28;45530;-84
2021/08/23 01:11:14;;;;;;;;;5.00;5.00;;;;;;;;5005974;28;45526;-84
2021/08/23 01:13:49;;;;;;;;;8.75;4.75;;;;;;;;5011642;28;45696;-85
2021/08/23 01:16:15;;;;;;;;;4.75;4.75;;;;;;;;5011941;28;48573;-85
2021/08/23 01:18:42;;;;;;;;;3.75;3.00;;;;;;;;5010021;28;45296;-84
2021/08/23 01:21:09;;;;;;;;;6.00;5.00;;;;;;;;4992257;28;45398;-85
2021/08/23 01:23:35;;;;;;;;;6.75;4.00;;;;;;;;5008546;28;45471;-84
2021/08/23 01:26:00;;;;;;;;;3.50;3.50;;;;;;;;4983928;28;47160;-85
2021/08/23 01:28:38;;;;;;;;;6.25;5.00;;;;;;;;5002648;28;46118;-85
2021/08/23 01:31:06;;;;;;;;;4.00;4.00;;;;;;;;4988900;28;45737;-85
2021/08/23 01:33:32;;;;;;;;;4.75;4.00;;;;;;;;5005060;28;45490;-85
2021/08/23 01:35:58;;;;;;;;;7.00;4.00;;;;;;;;4984846;28;47271;-85
2021/08/23 01:38:23;;;;;;;;;9.75;5.00;;;;;;;;5001595;28;46692;-85
2021/08/23 01:40:57;;;;;;;;;5.00;3.25;;;;;;;;4983424;28;45464;-85
2021/08/23 01:43:22;;;;;;;;;5.50;4.50;;;;;;;;5001539;28;45483;-85
2021/08/23 01:45:47;;;;;;;;;2.67;2.67;;;;;;;;5001051;28;46480;-85
2021/08/23 01:48:12;;;;;;;;;5.33;4.67;;;;;;;;5001593;28;44666;-85
2021/08/23 01:50:37;;;;;;;;;5.00;4.00;;;;;;;;4983812;28;45517;-85
2021/08/23 01:53:03;;;;;;;;;4.67;3.00;;;;;;;;4987164;28;45424;-85
2021/08/23 01:55:28;;;;;;;;;5.67;4.67;;;;;;;;4986810;28;47218;-85
2021/08/23 01:57:53;;;;;;;;;7.67;5.33;;;;;;;;5003350;28;45294;-85
2021/08/23 02:00:18;;;;;;;;;4.25;4.00;;;;;;;;4995749;28;45391;-85
2021/08/23 02:02:44;;;;;;;;;4.00;4.00;;;;;;;;4985277;28;45267;-85
2021/08/23 02:05:09;;;;;;;;;4.00;3.00;;;;;;;;4987305;28;45998;-85
2021/08/23 02:07:34;;;;;;;;;10.50;4.25;;;;;;;;4975848;28;45712;-84
2021/08/23 02:09:59;;;;;;;;;6.25;4.25;;;;;;;;4975924;28;45435;-85
2021/08/23 02:12:25;;;;;;;;;3.00;3.00;;;;;;;;4984357;28;45402;-85
2021/08/23 02:14:50;;;;;;;;;8.00;6.00;;;;;;;;4966208;28;47160;-85
2021/08/23 02:17:15;;;;;;;;;3.00;3.00;;;;;;;;4986271;28;45406;-85
2021/08/23 02:19:40;;;;;;;;;3.33;3.33;;;;;;;;4988364;28;45405;-85
2021/08/23 02:22:06;;;;;;;;;4.00;3.75;;;;;;;;4970836;28;45699;-85
2021/08/23 02:24:33;;;;;;;;;6.00;5.50;;;;;;;;4988396;28;45457;-85
2021/08/23 02:26:58;;;;;;;;;9.75;4.75;;;;;;;;4984552;28;45508;-85
2021/08/23 02:29:23;;;;;;;;;8.25;4.75;;;;;;;;4969445;28;45290;-85
2021/08/23 02:31:48;;;;;;;;;4.33;3.67;;;;;;;;4984616;28;45265;-85
2021/08/23 02:34:14;;;;;;;;;8.33;4.00;;;;;;;;4985300;28;45539;-85
2021/08/23 02:36:39;;;;;;;;;7.33;4.00;;;;;;;;4966922;28;45856;-85
2021/08/23 02:39:05;;;;;;;;;5.25;4.00;;;;;;;;4984628;28;45215;-85
2021/08/23 02:41:30;;;;;;;;;6.50;5.00;;;;;;;;4965656;28;45279;-85
2021/08/23 02:43:55;;;;;;;;;6.50;5.00;;;;;;;;4970052;28;46968;-85
2021/08/23 02:46:21;;;;;;;;;5.00;5.00;;;;;;;;4987255;28;45303;-85
2021/08/23 02:48:46;;;;;;;;;7.00;4.75;;;;;;;;4985474;28;45232;-85
2021/08/23 02:51:12;;;;;;;;;10.00;6.50;;;;;;;;4982866;28;45186;-85
2021/08/23 02:53:37;;;;;;;;;5.25;5.25;;;;;;;;4970003;28;45532;-85
2021/08/23 02:56:03;;;;;;;;;6.00;5.50;;;;;;;;4981389;28;45445;-85
2021/08/23 02:58:28;;;;;;;;;9.00;6.00;;;;;;;;4983354;28;45291;-85
2021/08/23 03:00:53;;;;;;;;;6.00;4.33;;;;;;;;4972567;28;45256;-85
2021/08/23 03:03:18;;;;;;;;;5.33;5.00;;;;;;;;4979386;28;45469;-85
2021/08/23 03:05:44;;;;;;;;;6.00;4.50;;;;;;;;4965734;28;45448;-85
2021/08/23 03:08:09;;;;;;;;;4.25;4.25;;;;;;;;4985163;28;45457;-85
2021/08/23 03:10:35;;;;;;;;;5.00;4.33;;;;;;;;4995300;28;45468;-85
2021/08/23 03:13:00;;;;;;;;;6.00;4.00;;;;;;;;5002546;28;46207;-85
2021/08/23 03:15:25;;;;;;;;;6.00;5.00;;;;;;;;5002738;28;45423;-85
2021/08/23 03:17:51;;;;;;;;;9.25;5.75;;;;;;;;5005548;28;45639;-85
2021/08/23 03:20:16;;;;;;;;;5.00;4.00;;;;;;;;4991773;28;45427;-85
2021/08/23 03:22:41;;;;;;;;;7.00;6.00;;;;;;;;4987359;28;46534;-85
2021/08/23 03:25:07;;;;;;;;;7.75;5.00;;;;;;;;4988969;28;45531;-85
2021/08/23 03:27:32;;;;;;;;;6.00;5.25;;;;;;;;4988484;28;45282;-85
2021/08/23 03:29:57;;;;;;;;;7.00;5.67;;;;;;;;4988222;28;45923;-85
2021/08/23 03:32:22;;;;;;;;;10.33;7.00;;;;;;;;5012443;28;47186;-85
2021/08/23 03:34:48;;;;;;;;;7.00;5.75;;;;;;;;5001710;28;45295;-85
2021/08/23 03:37:13;;;;;;;;;7.00;6.00;;;;;;;;5006094;28;45191;-84
2021/08/23 03:39:38;;;;;;;;;7.50;6.00;;;;;;;;5003440;28;45704;-85
2021/08/23 03:42:03;;;;;;;;;5.33;5.33;;;;;;;;4986919;28;47979;-85
2021/08/23 03:44:29;;;;;;;;;4.00;4.00;;;;;;;;5003508;28;45302;-85
2021/08/23 03:46:54;;;;;;;;;7.50;6.00;;;;;;;;5003542;28;45226;-85
2021/08/23 03:49:20;;;;;;;;;4.75;4.75;;;;;;;;4995275;28;45222;-85
2021/08/23 03:51:46;;;;;;;;;9.75;5.25;;;;;;;;5001530;28;45592;-85
2021/08/23 03:54:11;;;;;;;;;5.00;5.00;;;;;;;;5000677;28;45207;-85
2021/08/23 03:56:36;;;;;;;;;7.33;6.00;;;;;;;;4999002;28;45485;-85
2021/08/23 03:59:02;;;;;;;;;7.33;6.00;;;;;;;;5002444;28;45148;-85
2021/08/23 04:01:27;;;;;;;;;6.00;5.75;;;;;;;;4983331;28;46233;-85
2021/08/23 04:03:53;;;;;;;;;8.33;6.00;;;;;;;;4965078;28;45532;-86
2021/08/23 04:06:18;;;;;;;;;12.25;5.50;;;;;;;;4965470;28;45340;-85
2021/08/23 04:08:43;;;;;;;;;5.00;5.00;;;;;;;;4986467;28;45379;-85
2021/08/23 04:11:12;;;;;;;;;7.00;4.25;;;;;;;;5001586;28;46610;-85
2021/08/23 04:13:38;;;;;;;;;5.00;4.50;;;;;;;;5000162;28;45574;-85
2021/08/23 04:16:03;;;;;;;;;6.00;5.00;;;;;;;;5005688;28;45309;-85
2021/08/23 04:18:29;;;;;;;;;8.25;6.00;;;;;;;;5006292;28;45244;-85
2021/08/23 04:20:54;;;;;;;;;7.33;5.67;;;;;;;;5007230;28;46916;-85
2021/08/23 04:23:19;;;;;;;;;4.00;4.00;;;;;;;;5010210;28;45292;-85
2021/08/23 04:25:44;;;;;;;;;7.50;6.00;;;;;;;;4996234;28;45150;-85
2021/08/23 04:28:10;;;;;;;;;7.67;6.00;;;;;;;;5006149;28;45546;-85
2021/08/23 04:30:35;;;;;;;;;9.00;6.75;;;;;;;;5002441;28;47136;-85
2021/08/23 04:33:00;;;;;;;;;5.67;5.00;;;;;;;;5005266;28;45281;-85
2021/08/23 04:35:25;;;;;;;;;10.00;6.00;;;;;;;;5012841;28;45182;-85
2021/08/23 04:37:50;;;;;;;;;6.50;6.50;;;;;;;;4999802;28;45183;-85
2021/08/23 04:40:16;;;;;;;;;8.33;6.67;;;;;;;;4999640;28;46945;-85
2021/08/23 04:42:41;;;;;;;;;10.67;7.00;;;;;;;;4992245;28;45403;-85
2021/08/23 04:45:06;;;;;;;;;7.67;6.00;;;;;;;;5000185;28;45505;-85
2021/08/23 04:47:31;;;;;;;;;7.25;6.25;;;;;;;;4984485;28;45540;-85
2021/08/23 04:49:57;;;;;;;;;7.50;6.00;;;;;;;;4992855;28;46436;-84
2021/08/23 04:52:22;;;;;;;;;8.00;7.00;;;;;;;;5001469;28;45162;-84
2021/08/23 04:54:48;;;;;;;;;9.50;8.25;;;;;;;;5001137;28;45326;-84
2021/08/23 04:57:13;;;;;;;;;8.25;7.25;;;;;;;;5007958;28;44861;-84
2021/08/23 04:59:38;;;;;;;;;9.33;7.33;;;;;;;;5001024;28;47368;-84
2021/08/23 05:02:03;;;;;;;;;10.67;8.00;;;;;;;;5002451;28;45577;-84
2021/08/23 05:04:29;;;;;;;;;11.67;5.67;;;;;;;;5002332;28;45565;-84
2021/08/23 05:06:54;;;;;;;;;11.33;8.00;;;;;;;;5003427;28;45401;-85
2021/08/23 05:09:19;;;;;;;;;9.00;9.00;;;;;;;;5003689;28;47102;-84
2021/08/23 05:11:44;;;;;;;;;8.00;6.33;;;;;;;;5003198;28;45421;-84
2021/08/23 05:14:10;;;;;;;;;7.25;7.25;;;;;;;;5002037;28;45357;-84
2021/08/23 05:16:35;;;;;;;;;13.75;7.50;;;;;;;;4988327;28;45309;-85
2021/08/23 05:19:00;;;;;;;;;13.00;11.00;;;;;;;;5001184;28;45348;-84
2021/08/23 05:21:25;;;;;;;;;8.25;8.00;;;;;;;;4993020;28;45539;-84
2021/08/23 05:23:51;;;;;;;;;11.67;9.00;;;;;;;;5000007;28;45494;-84
2021/08/23 05:26:16;;;;;;;;;12.00;10.00;;;;;;;;4998495;28;45439;-85
2021/08/23 05:28:41;;;;;;;;;9.00;9.00;;;;;;;;5000934;28;45380;-84
2021/08/23 05:31:06;;;;;;;;;11.67;9.67;;;;;;;;5010195;28;45456;-85
2021/08/23 05:33:32;;;;;;;;;9.75;9.25;;;;;;;;5002572;28;45408;-84
2021/08/23 05:35:57;;;;;;;;;10.50;9.25;;;;;;;;4999742;28;45447;-84
2021/08/23 05:38:22;;;;;;;;;10.25;8.75;;;;;;;;5003575;28;46532;-84
2021/08/23 05:40:47;;;;;;;;;10.67;9.00;;;;;;;;5002636;28;45286;-84
2021/08/23 05:43:12;;;;;;;;;16.50;10.50;;;;;;;;5003274;28;45439;-84
2021/08/23 05:45:40;;;;;;;;;17.00;13.33;;;;;;;;5005138;28;45204;-84
2021/08/23 05:48:05;;;;;;;;;9.25;9.00;;;;;;;;5004792;28;46288;-84
2021/08/23 05:50:31;;;;;;;;;16.50;11.00;;;;;;;;5004198;28;45142;-84
2021/08/23 05:52:56;;;;;;;;;12.00;11.00;;;;;;;;4993929;28;45293;-84
2021/08/23 05:55:21;;;;;;;;;13.33;11.00;;;;;;;;5002288;28;45303;-84
2021/08/23 05:57:46;;;;;;;;;20.00;13.00;;;;;;;;5001444;28;45476;-84
2021/08/23 06:00:14;;;;;;;;;18.67;14.00;;;;;;;;5001909;28;45198;-84
2021/08/23 06:02:39;;;;;;;;;14.00;12.75;;;;;;;;4999187;28;45344;-84
2021/08/23 06:05:04;;;;;;;;;16.50;12.00;;;;;;;;4999600;28;45304;-84
2021/08/23 06:07:30;;;;;;;;;15.50;11.50;;;;;;;;4999355;28;45757;-84
2021/08/23 06:09:55;;;;;;;;;10.67;10.67;;;;;;;;4998715;28;45464;-84
2021/08/23 06:12:20;;;;;;;;;17.00;12.25;;;;;;;;4976056;28;45380;-84
2021/08/23 06:14:45;;;;;;;;;20.33;13.33;;;;;;;;4993545;28;45483;-84
2021/08/23 06:17:10;;;;;;;;;17.00;15.00;;;;;;;;4995867;28;46227;-84
2021/08/23 06:19:36;;;;;;;;;17.25;14.25;;;;;;;;4989331;28;45309;-84
2021/08/23 06:22:01;;;;;;;;;16.50;14.25;;;;;;;;4988846;28;45455;-85
2021/08/23 06:24:26;;;;;;;;;14.75;12.75;;;;;;;;4999565;28;45480;-84
2021/08/23 06:26:52;;;;;;;;;14.75;13.25;;;;;;;;4997133;28;45303;-84
2021/08/23 06:29:17;;;;;;;;;15.67;14.33;;;;;;;;4982446;28;45399;-85
2021/08/23 06:31:42;;;;;;;;;15.00;14.00;;;;;;;;4999297;28;45707;-84
2021/08/23 06:34:07;;;;;;;;;17.75;13.50;;;;;;;;4997523;28;45481;-84
2021/08/23 06:36:33;;;;;;;;;15.75;14.50;;;;;;;;4993790;28;45330;-85
2021/08/23 06:38:58;;;;;;;;;17.75;10.50;;;;;;;;5006419;28;45484;-83
2021/08/23 06:41:25;;;;;;;;;16.00;13.75;;;;;;;;5005814;28;45253;-85
2021/08/23 06:43:50;;;;;;;;;16.75;12.50;;;;;;;;4981756;28;45401;-83
2021/08/23 06:46:16;;;;;;;;;14.75;13.00;;;;;;;;4988588;28;45518;-83
2021/08/23 06:48:41;;;;;;;;;14.25;10.75;;;;;;;;5004358;28;45319;-86
2021/08/23 06:51:07;;;;;;;;;15.67;10.33;;;;;;;;4985827;28;45450;-85
2021/08/23 06:53:32;;;;;;;;;12.50;9.75;;;;;;;;4997288;28;46158;-84
2021/08/23 06:55:57;;;;;;;;;14.00;11.25;;;;;;;;5001360;28;45365;-87
2021/08/23 06:58:22;;;;;;;;;15.00;12.25;;;;;;;;4992174;28;45457;-88
2021/08/23 07:00:48;;;;;;;;;13.67;9.33;;;;;;;;4996882;28;45510;-87
2021/08/23 07:03:13;;;;;;;;;9.00;9.00;;;;;;;;4980857;28;45414;-87
2021/08/23 07:05:38;;;;;;;;;12.00;10.25;;;;;;;;5001547;28;46362;-88
2021/08/23 07:08:04;;;;;;;;;11.00;9.50;;;;;;;;4992661;28;45424;-84
2021/08/23 07:10:29;;;;;;;;;17.50;12.00;;;;;;;;4977856;28;46074;-84
2021/08/23 07:12:54;;;;;;;;;11.25;10.25;;;;;;;;5004034;28;45265;-83
2021/08/23 07:15:19;;;;;;;;;16.00;10.00;;;;;;;;4999680;28;46096;-83
2021/08/23 07:17:45;;;;;;;;;10.25;8.00;;;;;;;;4972601;28;45436;-87
2021/08/23 07:20:10;;;;;;;;;13.00;11.00;;;;;;;;4998314;28;45446;-86
2021/08/23 07:22:36;;;;;;;;;11.75;9.75;;;;;;;;4998465;28;45388;-86
2021/08/23 07:25:01;;;;;;;;;11.00;11.00;;;;;;;;4984211;28;47506;-85
2021/08/23 07:27:27;;;;;;;;;10.75;9.50;;;;;;;;4985335;28;45696;-87
2021/08/23 07:29:52;;;;;;;;;10.50;10.50;;;;;;;;5003874;28;45454;-87
2021/08/23 07:32:18;;;;;;;;;14.75;10.25;;;;;;;;4997399;28;45368;-87
2021/08/23 07:34:43;;;;;;;;;13.00;11.00;;;;;;;;4988490;28;45333;-86
2021/08/23 07:37:10;;;;;;;;;12.00;11.00;;;;;;;;4990772;28;45335;-87
2021/08/23 07:39:35;;;;;;;;;10.00;10.00;;;;;;;;4986996;28;45417;-87
2021/08/23 07:42:01;;;;;;;;;12.75;9.75;;;;;;;;4992527;28;45621;-87
2021/08/23 07:44:26;;;;;;;;;10.75;8.25;;;;;;;;4997182;28;47024;-87
2021/08/23 07:46:51;;;;;;;;;11.00;11.00;;;;;;;;4987527;28;45098;-87
2021/08/23 07:49:16;;;;;;;;;9.25;8.00;;;;;;;;4985052;28;45337;-87
2021/08/23 07:51:42;;;;;;;;;12.67;9.67;;;;;;;;5009798;28;45389;-88
2021/08/23 07:54:07;;;;;;;;;10.33;9.33;;;;;;;;5007405;28;45329;-87
2021/08/23 07:56:32;;;;;;;;;11.75;9.00;;;;;;;;5009592;28;45415;-88
2021/08/23 07:58:57;;;;;;;;;10.00;8.25;;;;;;;;4997935;28;45084;-88
2021/08/23 08:01:23;;;;;;;;;8.00;8.00;;;;;;;;5015365;28;45580;-88
2021/08/23 08:03:49;;;;;;;;;11.75;10.00;;;;;;;;4990889;28;46593;-87
2021/08/23 08:06:15;;;;;;;;;11.00;11.00;;;;;;;;4980742;28;48665;-88
2021/08/23 08:08:41;;;;;;;;;10.75;10.50;;;;;;;;4998278;28;45465;-87
2021/08/23 08:11:06;;;;;;;;;12.75;10.00;;;;;;;;4997756;28;45317;-87
2021/08/23 08:13:31;;;;;;;;;11.00;10.75;;;;;;;;4995816;28;45484;-88
2021/08/23 08:15:57;;;;;;;;;12.25;10.50;;;;;;;;4968214;28;45374;-88
2021/08/23 08:18:22;;;;;;;;;14.75;14.00;;;;;;;;4970290;28;45407;-90
2021/08/23 08:20:47;;;;;;;;;12.50;12.00;;;;;;;;4996190;28;45642;-87
2021/08/23 08:23:13;;;;;;;;;14.50;10.50;;;;;;;;4996857;28;45320;-87
2021/08/23 08:25:38;;;;;;;;;13.50;12.00;;;;;;;;4983793;28;45392;-88
2021/08/23 08:28:03;;;;;;;;;12.25;11.00;;;;;;;;4980729;28;45316;-88
2021/08/23 08:30:29;;;;;;;;;13.75;11.00;;;;;;;;4981959;28;46120;-92
2021/08/23 08:32:54;;;;;;;;;10.25;10.25;;;;;;;;4985614;28;48004;-86
2021/08/23 08:35:19;;;;;;;;;11.75;9.00;;;;;;;;4999868;28;45325;-86
2021/08/23 08:37:45;;;;;;;;;12.00;10.75;;;;;;;;4997158;28;45431;-85
2021/08/23 08:40:10;;;;;;;;;11.75;10.00;;;;;;;;4999373;28;45609;-85
2021/08/23 08:42:35;;;;;;;;;10.75;9.00;;;;;;;;5004346;28;45280;-86
2021/08/23 08:45:01;;;;;;;;;8.00;8.00;;;;;;;;5014454;28;45462;-84
2021/08/23 08:47:27;;;;;;;;;9.75;7.75;;;;;;;;5005008;28;45317;-85
2021/08/23 08:49:53;;;;;;;;;7.75;7.75;;;;;;;;4986638;28;45548;-84
2021/08/23 08:52:20;;;;;;;;;9.75;7.75;;;;;;;;4996703;28;45382;-85
2021/08/23 08:54:45;;;;;;;;;10.00;8.50;;;;;;;;4999634;28;45381;-85
2021/08/23 08:57:11;;;;;;;;;5.50;5.50;;;;;;;;4985462;28;45387;-84
2021/08/23 08:59:37;;;;;;;;;10.50;9.75;;;;;;;;4986886;28;45664;-85
2021/08/23 09:02:02;;;;;;;;;5.75;5.75;;;;;;;;4999294;28;46165;-85
2021/08/23 09:04:28;;;;;;;;;24.75;19.00;;;;;;;;5002165;28;45286;-85
2021/08/23 09:06:55;;;;;;;;;15.50;10.00;;;;;;;;4981959;28;45320;-85
2021/08/23 09:09:21;;;;;;;;;22.50;21.75;;;;;;;;4995993;28;44828;-85
2021/08/23 09:12:10;;;;;;;;;12.00;8.00;;;;;;;;4997038;28;47263;-85
2021/08/23 09:14:48;;;;;;;;;13.75;11.75;;;;;;;;4999830;28;45255;-84
2021/08/23 09:17:13;;;;;;;;;8.25;8.25;;;;;;;;5002170;28;45461;-86
2021/08/23 09:19:40;;;;;;;;;11.33;10.00;;;;;;;;5001328;28;45289;-86
2021/08/23 09:22:10;;;;;;;;;10.50;10.50;;;;;;;;5000809;28;45667;-85
2021/08/23 09:24:36;;;;;;;;;15.25;9.00;;;;;;;;4988834;28;45659;-85
2021/08/23 09:27:09;;;;;;;;;10.25;8.00;;;;;;;;4999789;28;45516;-85
2021/08/23 09:29:35;;;;;;;;;7.00;6.50;;;;;;;;4988150;28;45556;-86
2021/08/23 09:32:00;;;;;;;;;11.00;9.00;;;;;;;;4991253;28;46244;-85
2021/08/23 09:34:26;;;;;;;;;12.00;8.50;;;;;;;;4997120;28;45510;-85
2021/08/23 09:36:57;;;;;;;;;11.50;9.50;;;;;;;;5001011;28;45371;-84
2021/08/23 09:39:25;;;;;;;;;10.25;7.50;;;;;;;;4992001;28;45498;-85
2021/08/23 09:41:50;;;;;;;;;7.25;7.25;;;;;;;;4996723;28;47209;-89
2021/08/23 09:44:16;;;;;;;;;12.00;7.75;;;;;;;;5015077;28;45298;-88
2021/08/23 09:46:42;;;;;;;;;8.67;8.33;;;;;;;;5008580;28;45408;-84
2021/08/23 09:49:08;;;;;;;;;9.75;9.75;;;;;;;;5005715;28;44871;-87
2021/08/23 09:51:39;;;;;;;;;11.00;9.25;;;;;;;;4997535;28;46248;-90
2021/08/23 09:54:09;;;;;;;;;11.25;8.00;;;;;;;;5009953;28;45265;-91
2021/08/23 09:56:37;;;;;;;;;7.50;6.25;;;;;;;;4996180;28;45321;-92
2021/08/23 09:59:03;;;;;;;;;11.00;8.25;;;;;;;;4999086;28;45523;-90
2021/08/23 10:01:30;;;;;;;;;8.75;7.00;;;;;;;;4991937;28;47874;-90
2021/08/23 10:03:56;;;;;;;;;11.00;8.50;;;;;;;;5000052;28;45707;-90
2021/08/23 10:06:21;;;;;;;;;10.75;8.00;;;;;;;;4991949;28;45411;-90
2021/08/23 10:08:47;;;;;;;;;10.00;8.75;;;;;;;;4981629;28;45522;-91
2021/08/23 10:11:14;;;;;;;;;10.75;7.25;;;;;;;;4983148;28;48134;-90
2021/08/23 10:13:41;;;;;;;;;10.25;8.50;;;;;;;;4997213;28;45819;-91
2021/08/23 10:16:07;;;;;;;;;9.25;7.00;;;;;;;;4979492;28;45292;-91
2021/08/23 10:18:32;;;;;;;;;7.75;7.00;;;;;;;;5004439;28;45691;-90
2021/08/23 10:20:58;;;;;;;;;6.50;6.50;;;;;;;;5001585;28;45554;-91
2021/08/23 10:23:23;;;;;;;;;8.00;6.25;;;;;;;;4982051;28;46441;-90
2021/08/23 10:25:49;;;;;;;;;6.00;5.00;;;;;;;;4977776;28;45423;-90
2021/08/23 10:28:16;;;;;;;;;7.00;7.00;;;;;;;;4985401;28;45480;-90
2021/08/23 10:30:42;;;;;;;;;7.50;7.50;;;;;;;;4983783;28;46647;-90
2021/08/23 10:33:11;;;;;;;;;6.00;6.00;;;;;;;;5006310;28;45290;-89
2021/08/23 10:35:53;;;;;;;;;9.00;9.00;;;;;;;;5004244;28;45230;-89
2021/08/23 10:38:22;;;;;;;;;7.25;7.25;;;;;;;;5001586;28;45400;-89
2021/08/23 10:41:04;;;;;;;;;;;;;;;;;;;;;
2021/08/23 10:46:49;;;;;;;;;9.25;7.25;;;;;;;;4925619;28;45283;-89
2021/08/23 11:06:47;;;;;;;;;10.75;7.75;;;;;;;;5015950;28;44889;-91
2021/08/23 11:12:21;;;;;;;;;9.50;8.25;;;;;;;;4996911;28;45652;-90
2021/08/23 11:14:49;;;;;;;;;9.50;8.00;;;;;;;;5016916;28;46331;-90
2021/08/23 11:17:30;;;;;;;;;8.75;8.00;;;;;;;;5021412;28;45343;-89
2021/08/23 11:19:56;;;;;;;;;11.25;8.00;;;;;;;;5000572;28;45470;-90
2021/08/23 11:22:21;;;;;;;;;9.50;8.00;;;;;;;;4998013;28;45490;-88
2021/08/23 11:24:46;;;;;;;;;10.50;8.25;;;;;;;;5004772;28;47363;-89
2021/08/23 11:27:16;;;;;;;;;11.00;7.25;;;;;;;;4996259;28;45418;-88
2021/08/23 11:29:54;;;;;;;;;7.50;6.50;;;;;;;;5023829;28;45538;-88
2021/08/23 11:32:23;;;;;;;;;10.00;8.50;;;;;;;;4993202;28;45719;-88
2021/08/23 11:34:56;;;;;;;;;11.00;9.25;;;;;;;;5008400;28;46304;-91
2021/08/23 11:37:23;;;;;;;;;10.25;9.50;;;;;;;;5014440;28;45495;-90
2021/08/23 11:43:00;;;;;;;;;10.50;10.00;;;;;;;;5028437;28;45538;-87
2021/08/23 11:45:45;;;;;;;;;12.50;10.75;;;;;;;;5029329;28;45593;-87
2021/08/23 11:48:14;;;;;;;;;10.00;10.00;;;;;;;;5014556;28;45146;-88
2021/08/23 11:50:40;;;;;;;;;10.50;8.50;;;;;;;;5014699;28;45494;-90
2021/08/23 11:53:10;;;;;;;;;13.00;11.00;;;;;;;;5040531;28;45417;-87
2021/08/23 11:55:36;;;;;;;;;16.75;10.00;;;;;;;;5009826;28;46370;-90
2021/08/23 11:58:09;;;;;;;;;8.50;8.25;;;;;;;;5005010;28;45357;-89
2021/08/23 12:00:35;;;;;;;;;11.00;9.00;;;;;;;;5010474;28;45225;-89
2021/08/23 12:03:04;;;;;;;;;10.75;10.75;;;;;;;;5006422;28;44719;-90
2021/08/23 12:05:33;;;;;;;;;9.50;9.25;;;;;;;;5016247;28;46836;-87
2021/08/23 12:07:58;;;;;;;;;10.50;9.50;;;;;;;;5021966;28;45246;-93
2021/08/23 12:10:25;;;;;;;;;10.00;8.25;;;;;;;;4995590;28;45254;-89
2021/08/23 12:13:11;;;;;;;;;9.00;9.00;;;;;;;;5019624;28;45175;-92
2021/08/23 12:15:47;;;;;;;;;10.25;9.00;;;;;;;;5012821;28;47143;-90
2021/08/23 12:18:12;;;;;;;;;11.00;9.50;;;;;;;;5021252;28;45906;-91
2021/08/23 12:20:38;;;;;;;;;8.25;8.00;;;;;;;;4998284;28;45389;-88
2021/08/23 12:23:03;;;;;;;;;7.75;7.00;;;;;;;;4987801;28;45607;-91
2021/08/23 12:25:29;;;;;;;;;11.75;9.25;;;;;;;;4994508;28;46924;-90
2021/08/23 12:27:54;;;;;;;;;10.00;8.25;;;;;;;;5007287;28;45427;-90
2021/08/23 12:30:32;;;;;;;;;9.25;8.00;;;;;;;;5007831;28;45488;-89
2021/08/23 12:32:58;;;;;;;;;13.75;11.00;;;;;;;;5001368;28;45280;-88
2021/08/23 12:35:27;;;;;;;;;8.50;7.50;;;;;;;;5012421;28;45408;-88
2021/08/23 12:37:52;;;;;;;;;14.25;10.75;;;;;;;;5004602;28;45428;-89
2021/08/23 12:40:18;;;;;;;;;11.25;9.50;;;;;;;;5007118;28;45403;-89
2021/08/23 12:42:43;;;;;;;;;10.00;8.25;;;;;;;;4988291;28;45312;-88
2021/08/23 12:45:08;;;;;;;;;11.33;10.00;;;;;;;;5010733;28;45567;-88
2021/08/23 12:47:33;;;;;;;;;13.00;10.00;;;;;;;;5005029;28;45357;-87
2021/08/23 12:49:59;;;;;;;;;14.00;10.67;;;;;;;;5002858;28;45459;-89
2021/08/23 12:52:24;;;;;;;;;11.00;10.00;;;;;;;;5010150;28;45665;-88
2021/08/23 12:54:52;;;;;;;;;13.00;11.00;;;;;;;;5007120;28;46948;-88
2021/08/23 12:57:17;;;;;;;;;12.75;9.00;;;;;;;;5005739;28;45193;-88
2021/08/23 12:59:42;;;;;;;;;12.00;11.00;;;;;;;;4999652;28;45405;-84
2021/08/23 13:02:07;;;;;;;;;16.67;12.67;;;;;;;;5016261;28;45413;-89
2021/08/23 13:04:36;;;;;;;;;14.67;12.67;;;;;;;;5012895;28;45534;-90
2021/08/23 13:07:03;;;;;;;;;16.25;15.00;;;;;;;;4997535;28;45305;-90
2021/08/23 13:09:31;;;;;;;;;13.75;12.50;;;;;;;;4992095;28;45434;-90
2021/08/23 13:11:56;;;;;;;;;12.00;10.50;;;;;;;;5013148;28;45401;-84
2021/08/23 13:14:21;;;;;;;;;16.50;13.25;;;;;;;;5021669;28;45254;-84
2021/08/23 13:16:47;;;;;;;;;15.50;13.50;;;;;;;;5014465;28;46680;-84
2021/08/23 13:19:12;;;;;;;;;13.25;12.25;;;;;;;;4995564;28;45477;-84
2021/08/23 13:21:38;;;;;;;;;15.50;13.50;;;;;;;;5007758;28;45468;-85
2021/08/23 13:24:03;;;;;;;;;11.00;11.00;;;;;;;;4991170;28;47458;-84
2021/08/23 13:26:28;;;;;;;;;15.00;13.00;;;;;;;;5020223;28;45233;-84
2021/08/23 13:28:55;;;;;;;;;12.33;12.33;;;;;;;;5002311;28;45308;-84
2021/08/23 13:31:22;;;;;;;;;20.00;14.25;;;;;;;;4992112;28;45355;-85
2021/08/23 13:33:48;;;;;;;;;18.00;13.00;;;;;;;;5006384;28;45405;-84
2021/08/23 13:36:13;;;;;;;;;14.25;13.00;;;;;;;;4997368;28;45621;-83
2021/08/23 13:38:39;;;;;;;;;14.00;11.00;;;;;;;;5012377;28;45555;-83
2021/08/23 13:41:04;;;;;;;;;12.25;11.50;;;;;;;;5019512;28;45388;-83
2021/08/23 13:43:29;;;;;;;;;12.00;11.00;;;;;;;;5018813;28;46386;-83
2021/08/23 13:45:54;;;;;;;;;10.00;9.00;;;;;;;;5020128;28;45289;-82
2021/08/23 13:48:22;;;;;;;;;12.50;12.50;;;;;;;;5025562;28;45417;-86
2021/08/23 13:50:48;;;;;;;;;14.00;13.25;;;;;;;;4992170;28;45466;-85
2021/08/23 13:53:14;;;;;;;;;12.50;12.50;;;;;;;;4998379;28;47242;-83
2021/08/23 13:55:39;;;;;;;;;11.00;9.25;;;;;;;;5028426;28;45428;-82
2021/08/23 13:58:05;;;;;;;;;14.75;13.00;;;;;;;;5009352;28;45489;-82
2021/08/23 14:00:30;;;;;;;;;15.00;11.75;;;;;;;;5009337;28;46620;-82
2021/08/23 14:02:55;;;;;;;;;15.33;13.00;;;;;;;;5021097;28;45377;-82
2021/08/23 14:05:21;;;;;;;;;14.00;13.00;;;;;;;;4992842;28;45357;-82
2021/08/23 14:07:48;;;;;;;;;21.00;18.25;;;;;;;;5005711;28;45341;-82
2021/08/23 14:10:14;;;;;;;;;13.50;13.00;;;;;;;;5005134;28;45658;-82
2021/08/23 14:12:39;;;;;;;;;21.50;16.25;;;;;;;;5006133;28;47209;-82
2021/08/23 14:15:05;;;;;;;;;14.75;12.00;;;;;;;;5004943;28;45394;-82
2021/08/23 14:17:31;;;;;;;;;15.75;15.50;;;;;;;;5018782;28;45267;-82
2021/08/23 14:19:56;;;;;;;;;14.00;14.00;;;;;;;;5023029;28;45657;-82
2021/08/23 14:22:22;;;;;;;;;13.50;12.75;;;;;;;;5004409;28;45917;-82
2021/08/23 14:24:47;;;;;;;;;16.00;13.25;;;;;;;;5003396;28;45280;-83
2021/08/23 14:27:12;;;;;;;;;17.25;16.25;;;;;;;;5002908;28;45194;-82
2021/08/23 14:29:38;;;;;;;;;21.75;15.75;;;;;;;;5004420;28;45479;-82
2021/08/23 14:32:04;;;;;;;;;19.00;16.25;;;;;;;;5019965;28;47508;-82
2021/08/23 14:34:29;;;;;;;;;17.00;16.00;;;;;;;;5016146;28;45338;-82
2021/08/23 14:36:54;;;;;;;;;19.75;17.25;;;;;;;;5023983;28;45340;-82
2021/08/23 14:39:20;;;;;;;;;15.50;15.00;;;;;;;;5019492;28;45624;-82
2021/08/23 14:41:45;;;;;;;;;19.25;17.50;;;;;;;;5010513;28;45396;-82
2021/08/23 14:44:11;;;;;;;;;21.00;16.25;;;;;;;;5009845;28;45310;-82
2021/08/23 14:46:36;;;;;;;;;18.75;17.50;;;;;;;;5022701;28;45886;-82
2021/08/23 14:49:06;;;;;;;;;17.25;16.75;;;;;;;;5016644;28;45551;-82
2021/08/23 14:51:31;;;;;;;;;18.25;17.50;;;;;;;;5006312;28;48286;-82
2021/08/23 14:53:57;;;;;;;;;21.75;21.75;;;;;;;;5011588;28;45355;-82